Time;durP1;ratioP1;P1;durP2;ratioP2;P2;SDS_P1;SDS_P2;PMS_P1;PMS_P2;Temp;Humidity;BMP_temperature;BMP_pressure;BME280_temperature;BME280_humidity;BME280_pressure;Samples;Min_cycle;Max_cycle;Signal;HPM_P1;HPM_P2
2022/05/17 00:01:41;;;;;;;;;;;10.50;99.90;;;;;;5052602;28;19920;-73
2022/05/17 00:04:07;;;;;;;;;;;10.50;99.90;;;;;;5052360;28;20358;-72
2022/05/17 00:06:33;;;;;;;;;;;10.50;99.90;;;;;;5053020;28;19920;-72
2022/05/17 00:08:58;;;;;;;;;;;10.50;99.90;;;;;;5053276;28;20281;-72
2022/05/17 00:11:24;;;;;;;;;;;10.50;99.90;;;;;;5052697;28;20374;-72
2022/05/17 00:13:50;;;;;;;;;;;10.50;99.90;;;;;;5052993;28;19909;-72
2022/05/17 00:16:16;;;;;;;;;;;10.50;99.90;;;;;;5052974;28;19920;-74
2022/05/17 00:18:42;;;;;;;;;;;10.50;99.90;;;;;;5052788;28;20354;-72
2022/05/17 00:21:07;;;;;;;;;;;10.40;99.90;;;;;;5053079;28;19912;-74
2022/05/17 00:23:36;;;;;;;;;;;10.30;99.90;;;;;;5052050;28;19913;-72
2022/05/17 00:26:02;;;;;;;;;;;10.40;99.90;;;;;;5052899;28;19948;-75
2022/05/17 00:28:27;;;;;;;;;;;10.30;99.90;;;;;;5052860;28;19955;-72
2022/05/17 00:30:53;;;;;;;;;;;10.30;99.90;;;;;;5052773;28;19916;-73
2022/05/17 00:33:21;;;;;;;;;;;10.30;99.90;;;;;;5051388;28;20067;-72
2022/05/17 00:35:47;;;;;;;;;;;10.40;99.90;;;;;;5057849;28;19909;-73
2022/05/17 00:38:13;;;;;;;;;;;10.30;99.90;;;;;;5052677;28;19963;-73
2022/05/17 00:40:40;;;;;;;;;;;10.20;99.90;;;;;;5052732;28;19909;-73
2022/05/17 00:43:06;;;;;;;;;;;10.20;99.90;;;;;;5051684;28;19908;-73
2022/05/17 00:45:32;;;;;;;;;;;10.10;99.90;;;;;;5052501;28;19965;-73
2022/05/17 00:48:04;;;;;;;;;;;10.10;99.90;;;;;;5059649;28;20007;-73
2022/05/17 00:50:31;;;;;;;;;;;10.00;99.90;;;;;;5071463;28;19916;-72
2022/05/17 00:53:08;;;;;;;;;;;10.00;99.90;;;;;;5070852;28;19915;-72
2022/05/17 00:55:42;;;;;;;;;;;10.00;99.90;;;;;;5071213;28;20396;-72
2022/05/17 00:58:26;;;;;;;;;;;10.00;99.90;;;;;;5061227;28;19919;-72
2022/05/17 01:01:02;;;;;;;;;;;10.20;99.90;;;;;;5052284;28;20267;-72
2022/05/17 01:03:30;;;;;;;;;;;10.20;99.90;;;;;;5050878;28;19947;-73
2022/05/17 01:05:56;;;;;;;;;;;10.10;99.90;;;;;;5046276;28;19909;-73
2022/05/17 01:08:22;;;;;;;;;;;10.10;99.90;;;;;;5052724;28;19924;-73
2022/05/17 01:10:48;;;;;;;;;;;10.10;99.90;;;;;;5052340;28;20382;-72
2022/05/17 01:15:57;;;;;;;;;;;10.10;99.90;;;;;;5048112;28;19916;-72
2022/05/17 01:18:23;;;;;;;;;;;10.10;99.90;;;;;;5051725;28;19913;-74
2022/05/17 01:20:48;;;;;;;;;;;10.10;99.90;;;;;;5051973;28;19928;-72
2022/05/17 01:23:14;;;;;;;;;;;10.10;99.90;;;;;;5050704;28;19908;-73
2022/05/17 01:25:40;;;;;;;;;;;10.10;99.90;;;;;;5051934;28;19959;-73
2022/05/17 01:28:12;;;;;;;;;;;9.90;99.90;;;;;;5052282;28;19908;-72
2022/05/17 01:30:38;;;;;;;;;;;10.00;99.90;;;;;;5051777;28;20362;-72
2022/05/17 01:33:03;;;;;;;;;;;9.90;99.90;;;;;;5050720;28;19913;-74
2022/05/17 01:35:29;;;;;;;;;;;9.90;99.90;;;;;;5058517;28;19916;-72
2022/05/17 01:37:56;;;;;;;;;;;9.90;99.90;;;;;;5047570;28;20419;-72
2022/05/17 01:40:22;;;;;;;;;;;9.90;99.90;;;;;;5070971;28;19915;-73
2022/05/17 01:42:48;;;;;;;;;;;9.90;99.90;;;;;;5070591;28;19908;-72
2022/05/17 01:45:13;;;;;;;;;;;9.80;99.90;;;;;;5070918;28;19934;-74
2022/05/17 01:47:39;;;;;;;;;;;9.80;99.90;;;;;;5070465;28;19913;-72
2022/05/17 01:50:05;;;;;;;;;;;9.80;99.90;;;;;;5070941;28;19916;-73
2022/05/17 01:52:30;;;;;;;;;;;9.80;99.90;;;;;;5070430;28;19981;-73
2022/05/17 01:54:55;;;;;;;;;;;9.80;99.90;;;;;;5057481;28;19909;-74
2022/05/17 01:57:21;;;;;;;;;;;9.70;99.90;;;;;;5051534;28;19913;-72
2022/05/17 01:59:47;;;;;;;;;;;9.80;99.90;;;;;;5051525;28;19942;-72
2022/05/17 02:02:12;;;;;;;;;;;9.80;99.90;;;;;;5050803;28;19917;-73
2022/05/17 02:04:38;;;;;;;;;;;9.90;99.90;;;;;;5050656;28;20016;-72
2022/05/17 02:07:03;;;;;;;;;;;9.80;99.90;;;;;;5051560;28;19913;-73
2022/05/17 02:09:29;;;;;;;;;;;9.80;99.90;;;;;;5051715;28;19915;-73
2022/05/17 02:11:54;;;;;;;;;;;9.80;99.90;;;;;;5051152;28;20373;-72
2022/05/17 02:14:20;;;;;;;;;;;9.80;99.90;;;;;;5055180;28;19915;-72
2022/05/17 02:16:45;;;;;;;;;;;9.80;99.90;;;;;;5070383;28;20011;-72
2022/05/17 02:19:11;;;;;;;;;;;9.80;99.90;;;;;;5070219;28;20276;-72
2022/05/17 02:21:37;;;;;;;;;;;9.60;99.90;;;;;;5070191;28;19955;-73
2022/05/17 02:24:03;;;;;;;;;;;9.50;99.90;;;;;;5070047;28;19912;-72
2022/05/17 02:26:28;;;;;;;;;;;9.70;99.90;;;;;;5070611;28;20281;-74
2022/05/17 02:28:54;;;;;;;;;;;9.70;99.90;;;;;;5070597;28;19908;-72
2022/05/17 02:31:20;;;;;;;;;;;9.50;99.90;;;;;;5054512;28;20392;-73
2022/05/17 02:33:46;;;;;;;;;;;9.40;99.90;;;;;;5052732;28;19931;-72
2022/05/17 02:36:11;;;;;;;;;;;9.40;99.90;;;;;;5063453;28;19919;-73
2022/05/17 02:38:37;;;;;;;;;;;9.40;99.90;;;;;;5054523;28;19909;-74
2022/05/17 02:41:02;;;;;;;;;;;9.30;99.90;;;;;;5055008;28;19917;-73
2022/05/17 02:43:28;;;;;;;;;;;9.20;99.90;;;;;;5054220;28;19999;-73
2022/05/17 02:45:53;;;;;;;;;;;9.20;99.90;;;;;;5054876;28;19909;-73
2022/05/17 02:48:19;;;;;;;;;;;9.10;99.90;;;;;;5054379;28;19916;-72
2022/05/17 02:50:44;;;;;;;;;;;9.20;99.90;;;;;;5054787;28;20357;-73
2022/05/17 02:53:10;;;;;;;;;;;9.20;99.90;;;;;;5054010;28;20320;-73
2022/05/17 02:55:35;;;;;;;;;;;9.30;99.90;;;;;;5054556;28;19956;-73
2022/05/17 02:58:01;;;;;;;;;;;9.20;99.90;;;;;;5054693;28;19920;-73
2022/05/17 03:00:26;;;;;;;;;;;9.50;99.90;;;;;;5054705;28;20008;-73
2022/05/17 03:02:52;;;;;;;;;;;9.50;99.90;;;;;;5064813;28;19955;-73
2022/05/17 03:05:18;;;;;;;;;;;9.30;99.90;;;;;;5054041;28;19936;-74
2022/05/17 03:07:43;;;;;;;;;;;9.40;99.90;;;;;;5054446;28;19963;-72
2022/05/17 03:10:10;;;;;;;;;;;9.50;99.90;;;;;;5054681;28;20359;-72
2022/05/17 03:12:36;;;;;;;;;;;9.50;99.90;;;;;;5054064;28;20261;-72
2022/05/17 03:15:02;;;;;;;;;;;9.50;99.90;;;;;;5054002;28;20003;-72
2022/05/17 03:17:27;;;;;;;;;;;9.40;99.90;;;;;;5054004;28;19956;-72
2022/05/17 03:19:53;;;;;;;;;;;9.20;99.90;;;;;;5054254;28;19919;-72
2022/05/17 03:22:19;;;;;;;;;;;9.20;99.90;;;;;;5053834;28;19963;-72
2022/05/17 03:24:44;;;;;;;;;;;9.20;99.90;;;;;;5053647;28;19908;-72
2022/05/17 03:27:10;;;;;;;;;;;9.10;99.90;;;;;;5058258;28;19908;-73
2022/05/17 03:29:36;;;;;;;;;;;9.20;99.90;;;;;;5068889;28;19916;-72
2022/05/17 03:32:01;;;;;;;;;;;9.20;99.90;;;;;;5063480;28;19981;-72
2022/05/17 03:34:27;;;;;;;;;;;9.30;99.90;;;;;;5052981;28;20000;-72
2022/05/17 03:36:52;;;;;;;;;;;9.20;99.90;;;;;;5053916;28;19994;-73
2022/05/17 03:39:18;;;;;;;;;;;9.20;99.90;;;;;;5069700;28;19912;-73
2022/05/17 03:41:43;;;;;;;;;;;9.30;99.90;;;;;;5072747;28;20378;-73
2022/05/17 03:44:09;;;;;;;;;;;9.10;99.90;;;;;;5072245;28;20372;-74
2022/05/17 03:46:34;;;;;;;;;;;9.10;99.90;;;;;;5072504;28;19954;-73
2022/05/17 03:49:00;;;;;;;;;;;9.10;99.90;;;;;;5072604;28;19919;-73
2022/05/17 03:51:27;;;;;;;;;;;9.20;99.90;;;;;;5072832;28;20374;-73
2022/05/17 03:53:52;;;;;;;;;;;9.20;99.90;;;;;;5072402;28;20012;-73
2022/05/17 03:56:18;;;;;;;;;;;9.30;99.90;;;;;;5072982;28;20277;-73
2022/05/17 03:58:44;;;;;;;;;;;9.40;99.90;;;;;;5072827;28;19909;-73
2022/05/17 04:01:10;;;;;;;;;;;9.40;99.90;;;;;;5072406;28;19908;-73
2022/05/17 04:03:35;;;;;;;;;;;9.40;99.90;;;;;;5061134;28;20011;-73
2022/05/17 04:06:01;;;;;;;;;;;9.30;99.90;;;;;;5064039;28;20003;-72
2022/05/17 04:08:26;;;;;;;;;;;9.30;99.90;;;;;;5053695;28;19909;-72
2022/05/17 04:10:52;;;;;;;;;;;9.30;99.90;;;;;;5053301;28;19909;-73
2022/05/17 04:13:17;;;;;;;;;;;9.30;99.90;;;;;;5058686;28;19909;-73
2022/05/17 04:15:43;;;;;;;;;;;9.30;99.90;;;;;;5072251;28;20002;-73
2022/05/17 04:18:09;;;;;;;;;;;9.40;99.90;;;;;;5072002;28;19966;-72
2022/05/17 04:20:34;;;;;;;;;;;9.50;99.90;;;;;;5072245;28;19999;-73
2022/05/17 04:23:00;;;;;;;;;;;9.50;99.90;;;;;;5057439;28;19931;-73
2022/05/17 04:25:26;;;;;;;;;;;9.50;99.90;;;;;;5052492;28;19909;-73
2022/05/17 04:27:52;;;;;;;;;;;9.60;99.90;;;;;;5053071;28;19912;-73
2022/05/17 04:30:18;;;;;;;;;;;9.60;99.90;;;;;;5053155;28;19908;-73
2022/05/17 04:32:44;;;;;;;;;;;9.60;99.90;;;;;;5053662;28;19908;-73
2022/05/17 04:35:11;;;;;;;;;;;9.70;99.90;;;;;;5056715;28;19909;-74
2022/05/17 04:37:36;;;;;;;;;;;9.70;99.90;;;;;;5053441;28;19917;-72
2022/05/17 04:40:08;;;;;;;;;;;9.70;99.90;;;;;;5052722;28;19916;-73
2022/05/17 04:42:37;;;;;;;;;;;9.90;99.90;;;;;;5052159;28;20005;-74
2022/05/17 04:45:04;;;;;;;;;;;10.00;99.90;;;;;;5051931;28;20373;-73
2022/05/17 04:47:29;;;;;;;;;;;10.10;99.90;;;;;;5057489;28;19909;-73
2022/05/17 04:49:55;;;;;;;;;;;10.10;99.90;;;;;;5071604;28;19917;-72
2022/05/17 04:52:23;;;;;;;;;;;10.30;99.90;;;;;;5071029;28;20415;-72
2022/05/17 04:54:49;;;;;;;;;;;10.30;99.90;;;;;;5071570;28;19908;-73
2022/05/17 04:57:15;;;;;;;;;;;10.40;99.90;;;;;;5070640;28;20012;-73
2022/05/17 04:59:41;;;;;;;;;;;10.50;99.90;;;;;;5071551;28;19991;-73
2022/05/17 05:02:06;;;;;;;;;;;10.50;99.90;;;;;;5071245;28;19947;-74
2022/05/17 05:04:32;;;;;;;;;;;10.70;99.90;;;;;;5050173;28;19909;-72
2022/05/17 05:06:57;;;;;;;;;;;10.70;99.90;;;;;;5052167;28;19954;-73
2022/05/17 05:09:23;;;;;;;;;;;10.80;99.90;;;;;;5052252;28;20285;-73
2022/05/17 05:11:49;;;;;;;;;;;10.90;99.90;;;;;;5052137;28;19955;-74
2022/05/17 05:14:14;;;;;;;;;;;11.00;99.90;;;;;;5051566;28;19913;-73
2022/05/17 05:16:39;;;;;;;;;;;11.10;99.90;;;;;;5052268;28;20952;-73
2022/05/17 05:19:05;;;;;;;;;;;11.20;99.90;;;;;;5051705;28;19916;-73
2022/05/17 05:21:30;;;;;;;;;;;11.40;99.90;;;;;;5051710;28;20313;-75
2022/05/17 05:23:56;;;;;;;;;;;11.50;99.90;;;;;;5051584;28;19909;-72
2022/05/17 05:26:21;;;;;;;;;;;11.80;99.90;;;;;;5051889;28;19955;-73
2022/05/17 05:28:47;;;;;;;;;;;11.90;99.90;;;;;;5050685;28;19967;-73
2022/05/17 05:31:15;;;;;;;;;;;12.10;99.90;;;;;;5051831;28;19912;-73
2022/05/17 05:33:41;;;;;;;;;;;12.20;99.90;;;;;;5050845;28;19909;-73
2022/05/17 05:36:07;;;;;;;;;;;12.30;99.90;;;;;;5057134;28;19915;-75
2022/05/17 05:38:33;;;;;;;;;;;12.50;99.90;;;;;;5052142;28;19913;-75
2022/05/17 05:40:58;;;;;;;;;;;12.60;99.90;;;;;;5051973;28;20452;-74
2022/05/17 05:43:25;;;;;;;;;;;13.60;99.90;;;;;;5050948;28;19919;-73
2022/05/17 05:45:51;;;;;;;;;;;14.20;99.90;;;;;;5051860;28;20344;-73
2022/05/17 05:48:16;;;;;;;;;;;14.10;99.90;;;;;;5051025;28;20000;-73
2022/05/17 05:50:42;;;;;;;;;;;13.70;99.90;;;;;;5051557;28;19945;-73
2022/05/17 05:53:09;;;;;;;;;;;13.40;99.90;;;;;;5050458;28;19915;-73
2022/05/17 05:55:35;;;;;;;;;;;13.40;99.90;;;;;;5070461;28;19951;-72
2022/05/17 05:58:01;;;;;;;;;;;13.60;99.90;;;;;;5051437;28;19913;-73
2022/05/17 06:00:27;;;;;;;;;;;13.70;99.90;;;;;;5070348;28;19909;-72
2022/05/17 06:02:53;;;;;;;;;;;13.80;99.90;;;;;;5061603;28;19909;-73
2022/05/17 06:05:19;;;;;;;;;;;13.90;99.90;;;;;;5057276;28;19916;-73
2022/05/17 06:07:45;;;;;;;;;;;14.20;99.90;;;;;;5052046;28;19910;-73
2022/05/17 06:10:11;;;;;;;;;;;14.50;99.90;;;;;;5055560;28;19931;-73
2022/05/17 06:12:36;;;;;;;;;;;14.70;99.90;;;;;;5067667;28;19913;-72
2022/05/17 06:15:02;;;;;;;;;;;14.90;99.90;;;;;;5054501;28;20321;-75
2022/05/17 06:17:28;;;;;;;;;;;15.60;99.90;;;;;;5055229;28;20380;-73
2022/05/17 06:19:55;;;;;;;;;;;16.90;99.90;;;;;;5059020;28;20566;-73
2022/05/17 06:22:21;;;;;;;;;;;16.90;99.90;;;;;;5060925;28;19954;-73
2022/05/17 06:24:46;;;;;;;;;;;16.40;99.90;;;;;;5073534;28;20327;-73
2022/05/17 06:27:12;;;;;;;;;;;16.20;99.90;;;;;;5074315;28;19909;-73
2022/05/17 06:29:38;;;;;;;;;;;16.00;99.90;;;;;;5067751;28;19908;-73
2022/05/17 06:32:03;;;;;;;;;;;16.20;99.90;;;;;;5073507;28;19931;-73
2022/05/17 06:34:30;;;;;;;;;;;16.20;99.90;;;;;;5054291;28;20277;-73
2022/05/17 06:36:56;;;;;;;;;;;16.40;99.90;;;;;;5058204;28;19916;-71
2022/05/17 06:39:21;;;;;;;;;;;16.40;99.90;;;;;;5054812;28;19909;-71
2022/05/17 06:41:47;;;;;;;;;;;16.50;99.90;;;;;;5054254;28;19913;-72
2022/05/17 06:44:13;;;;;;;;;;;16.70;99.90;;;;;;5060533;28;19913;-73
2022/05/17 06:46:38;;;;;;;;;;;16.90;99.90;;;;;;5061435;28;19915;-72
2022/05/17 06:49:04;;;;;;;;;;;17.20;99.90;;;;;;5057224;28;19948;-75
2022/05/17 06:51:29;;;;;;;;;;;18.40;99.90;;;;;;5056203;28;19916;-72
2022/05/17 06:53:55;;;;;;;;;;;19.20;99.90;;;;;;5052788;28;19999;-74
2022/05/17 06:56:20;;;;;;;;;;;19.90;99.90;;;;;;5051865;28;19932;-72
2022/05/17 06:58:46;;;;;;;;;;;20.30;99.90;;;;;;5058456;28;19912;-72
2022/05/17 07:01:11;;;;;;;;;;;20.40;99.90;;;;;;5056282;28;19915;-72
2022/05/17 07:03:37;;;;;;;;;;;20.90;99.90;;;;;;5052045;28;20305;-74
2022/05/17 07:06:04;;;;;;;;;;;20.30;99.90;;;;;;5060004;28;19912;-72
2022/05/17 07:08:29;;;;;;;;;;;19.70;99.90;;;;;;5053851;28;20309;-74
2022/05/17 07:13:38;;;;;;;;;;;20.60;99.90;;;;;;5072182;28;19916;-73
2022/05/17 07:16:04;;;;;;;;;;;20.70;99.90;;;;;;5058757;28;19909;-73
2022/05/17 07:18:30;;;;;;;;;;;21.30;99.90;;;;;;5050950;28;19970;-75
2022/05/17 07:20:55;;;;;;;;;;;21.70;99.90;;;;;;5060928;28;19954;-73
2022/05/17 07:23:24;;;;;;;;;;;21.90;99.90;;;;;;5070723;28;20006;-73
2022/05/17 07:25:50;;;;;;;;;;;21.60;99.90;;;;;;5054699;28;19913;-75
2022/05/17 07:28:19;;;;;;;;;;;21.90;99.90;;;;;;5072547;28;19999;-73
2022/05/17 07:30:45;;;;;;;;;;;22.40;99.90;;;;;;5053538;28;19913;-73
2022/05/17 07:33:11;;;;;;;;;;;21.60;99.90;;;;;;5048226;28;19908;-73
2022/05/17 07:35:36;;;;;;;;;;;22.10;99.90;;;;;;5057886;28;19916;-73
2022/05/17 07:38:02;;;;;;;;;;;22.20;98.70;;;;;;5060176;28;19924;-73
2022/05/17 07:40:28;;;;;;;;;;;22.50;97.90;;;;;;5072645;28;20361;-74
2022/05/17 07:42:54;;;;;;;;;;;23.00;97.60;;;;;;5072060;28;19936;-73
2022/05/17 07:45:20;;;;;;;;;;;23.30;99.20;;;;;;5045668;28;19909;-73
2022/05/17 07:47:46;;;;;;;;;;;23.90;97.00;;;;;;5053145;28;19947;-73
2022/05/17 07:50:11;;;;;;;;;;;23.60;95.40;;;;;;5052528;28;19952;-73
2022/05/17 07:52:37;;;;;;;;;;;23.00;97.10;;;;;;5052744;28;19913;-73
2022/05/17 07:55:03;;;;;;;;;;;23.90;95.10;;;;;;5051952;28;19909;-73
2022/05/17 07:57:28;;;;;;;;;;;24.30;95.80;;;;;;5052988;28;19974;-74
2022/05/17 07:59:54;;;;;;;;;;;24.00;94.10;;;;;;5053459;28;19909;-72
2022/05/17 08:02:19;;;;;;;;;;;22.60;95.30;;;;;;5056228;28;19916;-72
2022/05/17 08:04:45;;;;;;;;;;;22.90;95.60;;;;;;5056854;28;19913;-73
2022/05/17 08:07:11;;;;;;;;;;;23.50;96.00;;;;;;5052642;28;19913;-74
2022/05/17 08:09:37;;;;;;;;;;;24.00;97.50;;;;;;5052913;28;19908;-72
2022/05/17 08:12:04;;;;;;;;;;;24.20;93.30;;;;;;5056230;28;20358;-72
2022/05/17 08:14:30;;;;;;;;;;;23.50;95.50;;;;;;5071368;28;19931;-72
2022/05/17 08:16:55;;;;;;;;;;;23.90;94.40;;;;;;5072301;28;20357;-73
2022/05/17 08:19:21;;;;;;;;;;;23.50;94.60;;;;;;5047929;28;19983;-73
2022/05/17 08:21:46;;;;;;;;;;;23.40;93.40;;;;;;5053486;28;19973;-73
2022/05/17 08:24:12;;;;;;;;;;;24.00;91.90;;;;;;5051641;28;19916;-73
2022/05/17 08:29:21;;;;;;;;;;;25.00;93.90;;;;;;5052287;28;19915;-72
2022/05/17 08:33:14;;;;;;;;;;;25.10;94.20;;;;;;5051189;28;20290;-73
2022/05/17 08:34:33;;;;;;;;;;;26.40;91.50;;;;;;5050007;28;19916;-72
2022/05/17 08:36:58;;;;;;;;;;;26.70;90.10;;;;;;5051808;28;19912;-72
2022/05/17 08:39:26;;;;;;;;;;;25.90;83.00;;;;;;5051609;28;19908;-72
2022/05/17 08:42:10;;;;;;;;;;;24.70;88.60;;;;;;5070541;28;19909;-74
2022/05/17 08:44:42;;;;;;;;;;;25.00;88.00;;;;;;5069722;28;20409;-74
2022/05/17 08:47:12;;;;;;;;;;;25.50;90.10;;;;;;5063503;28;20313;-74
2022/05/17 08:49:44;;;;;;;;;;;24.60;87.20;;;;;;5070600;28;19916;-74
2022/05/17 08:52:11;;;;;;;;;;;25.20;90.10;;;;;;5070142;28;20402;-74
2022/05/17 08:54:39;;;;;;;;;;;26.00;86.40;;;;;;5070088;28;20361;-74
2022/05/17 08:57:18;;;;;;;;;;;25.40;85.90;;;;;;5070408;28;19919;-74
2022/05/17 08:59:44;;;;;;;;;;;25.80;90.00;;;;;;5070794;28;20186;-73
2022/05/17 09:02:33;;;;;;;;;;;24.80;84.60;;;;;;5070272;28;20424;-73
2022/05/17 09:05:06;;;;;;;;;;;25.00;85.10;;;;;;5045700;28;19912;-74
2022/05/17 09:07:39;;;;;;;;;;;25.20;87.70;;;;;;5051101;28;19916;-74
2022/05/17 09:10:10;;;;;;;;;;;26.40;91.20;;;;;;5051414;28;19908;-74
2022/05/17 09:12:35;;;;;;;;;;;27.20;84.30;;;;;;5050902;28;19909;-72
2022/05/17 09:15:03;;;;;;;;;;;27.50;84.70;;;;;;5050422;28;19927;-73
2022/05/17 09:17:28;;;;;;;;;;;26.80;83.70;;;;;;5052544;28;19956;-72
2022/05/17 09:19:54;;;;;;;;;;;25.50;84.60;;;;;;5036556;28;19989;-72
2022/05/17 09:22:20;;;;;;;;;;;25.50;85.30;;;;;;5055274;28;19909;-72
2022/05/17 09:24:49;;;;;;;;;;;25.20;85.00;;;;;;5050396;28;19913;-72
2022/05/17 09:27:23;;;;;;;;;;;25.50;88.50;;;;;;5051119;28;19916;-74
2022/05/17 09:29:50;;;;;;;;;;;25.70;81.10;;;;;;5051273;28;20380;-73
2022/05/17 09:32:29;;;;;;;;;;;26.60;83.50;;;;;;5063621;28;19954;-73
2022/05/17 09:34:59;;;;;;;;;;;25.60;79.00;;;;;;5052896;28;20259;-73
2022/05/17 09:37:30;;;;;;;;;;;26.20;81.90;;;;;;5051308;28;20001;-73
2022/05/17 09:39:55;;;;;;;;;;;27.30;80.20;;;;;;5070515;28;20304;-73
2022/05/17 09:42:21;;;;;;;;;;;26.90;81.30;;;;;;5063860;28;19920;-73
2022/05/17 09:44:49;;;;;;;;;;;26.40;80.80;;;;;;5056692;28;19952;-74
2022/05/17 09:47:31;;;;;;;;;;;26.90;74.40;;;;;;5057777;28;20000;-73
2022/05/17 09:52:45;;;;;;;;;;;26.90;83.20;;;;;;5057272;28;19997;-73
2022/05/17 09:55:16;;;;;;;;;;;27.60;79.40;;;;;;5057202;28;20050;-73
2022/05/17 09:57:53;;;;;;;;;;;27.60;74.20;;;;;;5056969;28;19917;-74
2022/05/17 10:00:28;;;;;;;;;;;26.00;77.70;;;;;;5057001;28;19916;-73
2022/05/17 10:02:53;;;;;;;;;;;27.10;77.00;;;;;;5056133;28;19913;-74
2022/05/17 10:05:19;;;;;;;;;;;26.50;76.40;;;;;;5055925;28;19908;-73
2022/05/17 10:07:48;;;;;;;;;;;25.30;77.50;;;;;;5057235;28;19916;-73
2022/05/17 10:10:21;;;;;;;;;;;26.40;84.00;;;;;;5076673;28;19962;-73
2022/05/17 10:12:49;;;;;;;;;;;26.70;73.50;;;;;;5076116;28;20350;-74
2022/05/17 10:15:14;;;;;;;;;;;26.60;80.30;;;;;;5075719;28;19954;-73
2022/05/17 10:17:40;;;;;;;;;;;26.70;76.10;;;;;;5063312;28;19917;-74
2022/05/17 10:20:15;;;;;;;;;;;27.60;73.80;;;;;;5063181;28;19913;-74
2022/05/17 10:23:00;;;;;;;;;;;28.20;77.70;;;;;;5054536;28;19909;-74
2022/05/17 10:25:29;;;;;;;;;;;27.20;70.70;;;;;;5056676;28;19916;-73
2022/05/17 10:28:01;;;;;;;;;;;26.00;72.10;;;;;;5057566;28;19915;-74
2022/05/17 10:30:38;;;;;;;;;;;27.10;80.60;;;;;;5057200;28;20336;-73
2022/05/17 10:33:06;;;;;;;;;;;27.40;74.20;;;;;;5061040;28;20211;-73
2022/05/17 10:35:34;;;;;;;;;;;26.40;72.10;;;;;;5063429;28;20313;-73
2022/05/17 10:38:06;;;;;;;;;;;25.50;79.70;;;;;;5057126;28;19913;-73
2022/05/17 10:40:33;;;;;;;;;;;25.40;75.60;;;;;;5076787;28;19909;-73
2022/05/17 10:43:00;;;;;;;;;;;25.80;78.70;;;;;;5076012;28;19950;-73
2022/05/17 10:45:33;;;;;;;;;;;26.90;79.10;;;;;;5075059;28;19959;-73
2022/05/17 10:48:04;;;;;;;;;;;27.50;75.10;;;;;;5051500;28;20007;-74
2022/05/17 10:50:53;;;;;;;;;;;27.70;73.80;;;;;;5071067;28;19916;-73
2022/05/17 10:53:22;;;;;;;;;;;27.80;70.50;;;;;;5058801;28;19908;-74
2022/05/17 10:56:06;;;;;;;;;;;26.00;71.80;;;;;;5052711;28;19999;-73
2022/05/17 10:58:58;;;;;;;;;;;25.60;72.30;;;;;;5071702;28;19920;-74
2022/05/17 11:01:28;;;;;;;;;;;26.90;78.60;;;;;;5071860;28;20328;-74
2022/05/17 11:04:14;;;;;;;;;;;26.00;70.40;;;;;;5057470;28;20314;-74
2022/05/17 11:06:49;;;;;;;;;;;25.70;73.30;;;;;;5054064;28;19909;-74
2022/05/17 11:09:31;;;;;;;;;;;27.60;72.20;;;;;;5058510;28;19908;-73
2022/05/17 11:12:00;;;;;;;;;;;27.70;71.50;;;;;;5049136;28;19972;-74
2022/05/17 11:14:28;;;;;;;;;;;27.40;71.00;;;;;;5052439;28;19912;-74
2022/05/17 11:17:02;;;;;;;;;;;28.00;73.20;;;;;;5052151;28;20343;-74
2022/05/17 11:19:34;;;;;;;;;;;27.80;71.00;;;;;;5054722;28;19913;-74
2022/05/17 11:21:59;;;;;;;;;;;27.10;73.80;;;;;;5055595;28;19966;-73
2022/05/17 11:24:31;;;;;;;;;;;26.00;72.60;;;;;;5052344;28;19993;-74
2022/05/17 11:27:21;;;;;;;;;;;27.60;73.00;;;;;;5053035;28;20274;-74
2022/05/17 11:29:56;;;;;;;;;;;29.20;70.20;;;;;;5053700;28;20382;-74
2022/05/17 11:32:24;;;;;;;;;;;28.90;69.90;;;;;;5052599;28;19909;-74
2022/05/17 11:34:52;;;;;;;;;;;28.70;68.40;;;;;;5052288;28;19909;-75
2022/05/17 11:37:41;;;;;;;;;;;27.50;68.80;;;;;;5052775;28;19927;-75
2022/05/17 11:40:08;;;;;;;;;;;28.90;72.90;;;;;;5058797;28;19908;-74
2022/05/17 11:42:34;;;;;;;;;;;29.60;68.30;;;;;;5060362;28;19923;-74
2022/05/17 11:45:18;;;;;;;;;;;29.40;71.10;;;;;;5052182;28;20362;-76
2022/05/17 11:47:44;;;;;;;;;;;29.20;71.70;;;;;;5052744;28;19913;-73
2022/05/17 11:50:15;;;;;;;;;;;27.50;69.80;;;;;;5052607;28;19928;-72
2022/05/17 11:52:41;;;;;;;;;;;26.30;72.40;;;;;;5046946;28;19909;-73
2022/05/17 11:55:08;;;;;;;;;;;26.00;75.90;;;;;;5052104;28;19959;-73
2022/05/17 11:57:35;;;;;;;;;;;26.10;72.60;;;;;;5052381;28;20007;-72
2022/05/17 12:00:04;;;;;;;;;;;25.70;74.50;;;;;;5055604;28;19916;-72
2022/05/17 12:02:42;;;;;;;;;;;25.30;75.00;;;;;;5048754;28;19913;-72
2022/05/17 12:05:11;;;;;;;;;;;24.90;74.40;;;;;;5046989;28;20350;-72
2022/05/17 12:07:37;;;;;;;;;;;25.40;78.10;;;;;;5052401;28;19909;-72
2022/05/17 12:10:12;;;;;;;;;;;25.30;74.20;;;;;;5055094;28;19909;-72
2022/05/17 12:12:41;;;;;;;;;;;26.00;72.20;;;;;;5052783;28;19944;-72
2022/05/17 12:15:22;;;;;;;;;;;26.70;75.00;;;;;;5052110;28;19913;-72
2022/05/17 12:17:56;;;;;;;;;;;27.50;69.70;;;;;;5050922;28;19925;-73
2022/05/17 12:20:31;;;;;;;;;;;27.60;71.10;;;;;;5054797;28;19913;-73
2022/05/17 12:22:59;;;;;;;;;;;28.00;63.80;;;;;;5045844;28;19915;-73
2022/05/17 12:25:31;;;;;;;;;;;29.40;58.60;;;;;;5050943;28;20201;-72
2022/05/17 12:27:57;;;;;;;;;;;31.20;60.20;;;;;;5052230;28;19908;-72
2022/05/17 12:33:21;;;;;;;;;;;29.40;60.00;;;;;;5050993;28;20309;-72
2022/05/17 12:35:47;;;;;;;;;;;31.90;62.10;;;;;;5051360;28;19909;-72
2022/05/17 12:43:53;;;;;;;;;;;29.30;63.40;;;;;;5050985;28;20420;-72
2022/05/17 12:46:30;;;;;;;;;;;27.10;65.30;;;;;;5051524;28;19913;-72
2022/05/17 12:48:56;;;;;;;;;;;28.40;63.70;;;;;;5051321;28;19939;-72
2022/05/17 12:51:22;;;;;;;;;;;30.70;59.00;;;;;;5051072;28;19909;-72
2022/05/17 12:53:49;;;;;;;;;;;28.50;58.90;;;;;;5050638;28;19920;-72
2022/05/17 12:56:22;;;;;;;;;;;26.50;65.00;;;;;;5051462;28;19959;-72
2022/05/17 12:58:50;;;;;;;;;;;25.60;68.90;;;;;;5051639;28;20003;-72
2022/05/17 13:01:21;;;;;;;;;;;25.20;68.70;;;;;;5051285;28;19916;-72
2022/05/17 13:03:46;;;;;;;;;;;25.60;72.90;;;;;;5050397;28;20050;-72
2022/05/17 13:06:12;;;;;;;;;;;26.10;69.80;;;;;;5050989;28;19936;-71
2022/05/17 13:08:38;;;;;;;;;;;30.90;59.50;;;;;;5051289;28;19913;-72
2022/05/17 13:11:04;;;;;;;;;;;28.60;62.90;;;;;;5055944;28;19951;-73
2022/05/17 13:13:34;;;;;;;;;;;26.50;64.30;;;;;;5050781;28;20162;-72
2022/05/17 13:16:21;;;;;;;;;;;25.30;68.30;;;;;;5051503;28;19916;-73
2022/05/17 13:18:54;;;;;;;;;;;25.00;69.10;;;;;;5044439;28;19913;-73
2022/05/17 13:21:24;;;;;;;;;;;24.50;72.00;;;;;;5050561;28;20253;-72
2022/05/17 13:23:51;;;;;;;;;;;24.00;74.10;;;;;;5050498;28;19952;-72
2022/05/17 13:26:23;;;;;;;;;;;23.70;73.00;;;;;;5050665;28;20288;-72
2022/05/17 13:28:48;;;;;;;;;;;23.80;74.60;;;;;;5051370;28;19978;-73
2022/05/17 13:31:18;;;;;;;;;;;24.50;71.30;;;;;;5050783;28;20377;-73
2022/05/17 13:34:01;;;;;;;;;;;27.90;62.60;;;;;;5050268;28;19913;-73
2022/05/17 13:36:38;;;;;;;;;;;30.70;57.80;;;;;;5050826;28;19913;-74
2022/05/17 13:39:16;;;;;;;;;;;31.70;53.80;;;;;;5044845;28;20425;-72
2022/05/17 13:41:42;;;;;;;;;;;32.60;54.50;;;;;;5054777;28;19909;-74
2022/05/17 13:44:08;;;;;;;;;;;31.60;51.00;;;;;;5069508;28;19975;-73
2022/05/17 13:46:34;;;;;;;;;;;31.40;51.80;;;;;;5070602;28;19916;-73
2022/05/17 13:49:08;;;;;;;;;;;30.60;51.50;;;;;;5069922;28;20383;-73
2022/05/17 13:51:34;;;;;;;;;;;30.00;55.80;;;;;;5069586;28;19951;-74
2022/05/17 13:54:02;;;;;;;;;;;31.60;54.80;;;;;;5068972;28;19909;-73
2022/05/17 13:56:31;;;;;;;;;;;32.00;59.00;;;;;;5069842;28;20340;-74
2022/05/17 13:58:59;;;;;;;;;;;32.10;51.30;;;;;;5069758;28;20430;-74
2022/05/17 14:01:27;;;;;;;;;;;31.70;52.50;;;;;;5056748;28;20326;-74
2022/05/17 14:04:11;;;;;;;;;;;32.00;55.20;;;;;;5055696;28;20004;-73
2022/05/17 14:06:46;;;;;;;;;;;30.80;50.90;;;;;;5050708;28;20320;-73
2022/05/17 14:11:58;;;;;;;;;;;29.90;54.00;;;;;;5045143;28;20415;-73
2022/05/17 14:14:24;;;;;;;;;;;31.00;52.30;;;;;;5049580;28;19970;-74
2022/05/17 14:17:11;;;;;;;;;;;31.90;54.00;;;;;;5050380;28;19917;-74
2022/05/17 14:19:37;;;;;;;;;;;32.20;54.20;;;;;;5047417;28;20358;-73
2022/05/17 14:22:04;;;;;;;;;;;30.70;52.30;;;;;;5047333;28;19962;-74
2022/05/17 14:24:29;;;;;;;;;;;31.50;50.10;;;;;;5055527;28;19961;-73
2022/05/17 14:26:56;;;;;;;;;;;32.00;53.40;;;;;;5050627;28;19913;-74
2022/05/17 14:29:25;;;;;;;;;;;31.60;50.00;;;;;;5051907;28;20420;-74
2022/05/17 14:31:50;;;;;;;;;;;31.50;51.90;;;;;;5055653;28;19916;-73
2022/05/17 14:34:18;;;;;;;;;;;31.40;51.10;;;;;;5053022;28;19909;-72
2022/05/17 14:36:44;;;;;;;;;;;31.20;51.60;;;;;;5054023;28;19913;-73
2022/05/17 14:39:10;;;;;;;;;;;31.20;51.50;;;;;;5054187;28;19919;-73
2022/05/17 14:41:36;;;;;;;;;;;32.10;50.90;;;;;;5053630;28;20370;-73
2022/05/17 14:44:01;;;;;;;;;;;31.20;54.20;;;;;;5053243;28;19978;-73
2022/05/17 14:46:27;;;;;;;;;;;30.10;53.90;;;;;;5054123;28;20003;-73
2022/05/17 14:48:53;;;;;;;;;;;30.90;49.20;;;;;;5053949;28;19931;-73